Time;durP1;ratioP1;P1;durP2;ratioP2;P2;SDS_P1;SDS_P2;PMS_P1;PMS_P2;Temp;Humidity;BMP_temperature;BMP_pressure;BME280_temperature;BME280_humidity;BME280_pressure;Samples;Min_cycle;Max_cycle;Signal;HPM_P1;HPM_P2
2022/06/09 00:01:45;;;;;;;7.30;1.60;;;17.70;61.90;;;;;;5055197;28;20412;-48
2022/06/09 00:04:18;;;;;;;7.35;1.70;;;17.70;61.70;;;;;;5058930;28;20056;-47
2022/06/09 00:06:50;;;;;;;8.05;1.70;;;17.70;61.60;;;;;;5058292;28;20049;-48
2022/06/09 00:09:19;;;;;;;6.38;1.80;;;17.70;61.70;;;;;;5059750;28;20563;-52
2022/06/09 00:11:50;;;;;;;8.18;1.73;;;17.70;61.90;;;;;;5058243;28;20519;-49
2022/06/09 00:14:18;;;;;;;6.93;2.05;;;17.70;61.70;;;;;;5059755;28;20057;-48
2022/06/09 00:16:46;;;;;;;3.92;1.30;;;17.70;61.60;;;;;;5059584;28;20411;-51
2022/06/09 00:19:14;;;;;;;9.57;1.92;;;17.70;61.60;;;;;;5059614;28;20059;-47
2022/06/09 00:21:41;;;;;;;4.65;1.38;;;17.70;61.60;;;;;;5057452;28;20057;-49
2022/06/09 00:24:10;;;;;;;5.70;1.60;;;17.70;61.50;;;;;;5060254;28;20056;-49
2022/06/09 00:26:38;;;;;;;7.32;1.23;;;17.70;61.50;;;;;;5060329;28;20060;-49
2022/06/09 00:29:06;;;;;;;6.75;1.60;;;17.70;61.60;;;;;;5059672;28;20057;-50
2022/06/09 00:31:33;;;;;;;6.13;1.55;;;17.70;61.50;;;;;;5057841;28;20555;-50
2022/06/09 00:34:01;;;;;;;7.20;1.35;;;17.70;61.30;;;;;;5058786;28;20052;-50
2022/06/09 00:36:29;;;;;;;6.20;1.50;;;17.70;61.10;;;;;;5063020;28;20052;-51
2022/06/09 00:38:57;;;;;;;6.40;1.52;;;17.60;60.90;;;;;;5063695;28;20389;-49
2022/06/09 00:41:27;;;;;;;7.78;1.65;;;17.60;60.80;;;;;;5060378;28;20051;-58
2022/06/09 00:43:54;;;;;;;4.28;1.50;;;17.50;60.50;;;;;;5062237;28;20056;-47
2022/06/09 00:46:24;;;;;;;4.38;1.45;;;17.60;60.60;;;;;;5062637;28;20496;-50
2022/06/09 00:48:56;;;;;;;5.18;1.60;;;17.50;60.50;;;;;;5062090;28;20056;-50
2022/06/09 00:51:30;;;;;;;7.28;1.60;;;17.50;60.60;;;;;;5059607;28;20051;-45
2022/06/09 00:54:02;;;;;;;5.22;1.50;;;17.40;60.60;;;;;;5063732;28;20389;-50
2022/06/09 00:56:32;;;;;;;4.75;1.50;;;17.50;60.60;;;;;;5061937;28;20049;-50
2022/06/09 00:59:00;;;;;;;7.20;1.65;;;17.40;60.50;;;;;;5061634;28;20143;-48
2022/06/09 01:01:28;;;;;;;6.43;1.35;;;17.40;60.70;;;;;;5062192;28;20044;-52
2022/06/09 01:03:59;;;;;;;6.38;1.83;;;17.40;60.70;;;;;;5063060;28;20488;-52
2022/06/09 01:06:31;;;;;;;8.32;2.15;;;17.40;60.70;;;;;;5062495;28;20052;-47
2022/06/09 01:09:05;;;;;;;3.17;1.20;;;17.30;60.70;;;;;;5063218;28;20056;-49
2022/06/09 01:11:35;;;;;;;7.32;1.45;;;17.30;60.70;;;;;;5060201;28;20071;-50
2022/06/09 01:14:04;;;;;;;7.35;2.35;;;17.30;60.70;;;;;;5062561;28;20435;-52
2022/06/09 01:16:44;;;;;;;7.53;1.90;;;17.30;60.80;;;;;;5062067;28;20416;-49
2022/06/09 01:19:28;;;;;;;8.65;2.28;;;17.30;60.90;;;;;;5061838;28;20063;-48
2022/06/09 01:22:25;;;;;;;13.23;2.95;;;17.30;60.70;;;;;;5057972;28;20468;-50
2022/06/09 01:25:12;;;;;;;7.28;1.75;;;17.20;60.60;;;;;;5062238;28;20048;-50
2022/06/09 01:28:16;;;;;;;8.27;1.92;;;17.20;60.70;;;;;;5062578;28;20068;-50
2022/06/09 01:30:50;;;;;;;11.88;2.80;;;17.20;60.70;;;;;;5046297;28;20052;-50
2022/06/09 01:33:25;;;;;;;13.10;1.75;;;17.20;60.80;;;;;;5061066;28;20510;-49
2022/06/09 01:35:55;;;;;;;4.50;1.80;;;17.20;60.80;;;;;;5060373;28;20052;-50
2022/06/09 01:38:23;;;;;;;8.27;1.63;;;17.20;60.90;;;;;;5058594;28;20625;-48
2022/06/09 01:40:50;;;;;;;5.65;1.60;;;17.20;61.10;;;;;;5058651;28;20408;-50
2022/06/09 01:43:18;;;;;;;6.93;1.75;;;17.20;61.30;;;;;;5063540;28;20055;-50
2022/06/09 01:45:55;;;;;;;9.52;1.92;;;17.20;61.30;;;;;;5060911;28;20049;-49
2022/06/09 01:48:25;;;;;;;3.70;1.42;;;17.20;61.40;;;;;;5063221;28;20056;-47
2022/06/09 01:50:55;;;;;;;3.72;1.10;;;17.20;61.40;;;;;;5057970;28;20049;-49
2022/06/09 01:53:29;;;;;;;10.45;2.33;;;17.20;61.30;;;;;;5064006;28;20056;-50
2022/06/09 01:56:03;;;;;;;8.13;1.60;;;17.20;61.40;;;;;;5059861;28;20052;-50
2022/06/09 01:58:36;;;;;;;7.88;1.63;;;17.20;61.30;;;;;;5061886;28;20432;-52
2022/06/09 02:01:06;;;;;;;3.92;1.13;;;17.30;61.30;;;;;;5059135;28;20052;-46
2022/06/09 02:03:40;;;;;;;6.80;1.42;;;17.30;61.30;;;;;;5062525;28;20377;-49
2022/06/09 02:06:11;;;;;;;6.45;1.73;;;17.30;61.30;;;;;;5062199;28;20049;-47
2022/06/09 02:08:39;;;;;;;6.70;1.83;;;17.30;61.20;;;;;;5062816;28;20415;-50
2022/06/09 02:11:09;;;;;;;8.20;2.00;;;17.30;61.10;;;;;;5061853;28;20057;-52
2022/06/09 02:13:40;;;;;;;7.45;1.92;;;17.30;61.10;;;;;;5061476;28;20059;-47
2022/06/09 02:16:12;;;;;;;8.43;1.80;;;17.30;61.20;;;;;;5059992;28;20047;-55
2022/06/09 02:18:42;;;;;;;8.50;1.92;;;17.30;61.10;;;;;;5062605;28;20545;-52
2022/06/09 02:21:13;;;;;;;10.10;2.20;;;17.30;61.10;;;;;;5056963;28;20057;-51
2022/06/09 02:23:41;;;;;;;6.57;1.80;;;17.30;61.10;;;;;;5063211;28;20507;-49
2022/06/09 02:26:09;;;;;;;4.03;1.58;;;17.30;61.10;;;;;;5062854;28;20056;-47
2022/06/09 02:28:36;;;;;;;6.50;1.50;;;17.30;61.10;;;;;;5062601;28;20056;-46
2022/06/09 02:31:04;;;;;;;9.88;2.28;;;17.20;61.00;;;;;;5059425;28;20052;-49
2022/06/09 02:33:33;;;;;;;9.18;1.83;;;17.20;60.90;;;;;;5060972;28;20059;-50
2022/06/09 02:36:01;;;;;;;6.18;1.65;;;17.20;61.00;;;;;;5060896;28;20056;-50
2022/06/09 02:38:28;;;;;;;8.93;1.75;;;17.20;60.90;;;;;;5062587;28;20965;-48
2022/06/09 02:40:56;;;;;;;7.82;1.75;;;17.20;60.90;;;;;;5057128;28;20045;-51
2022/06/09 02:43:24;;;;;;;8.93;1.80;;;17.20;60.80;;;;;;5062715;28;20079;-50
2022/06/09 02:45:53;;;;;;;5.97;2.10;;;17.20;60.70;;;;;;5061013;28;20072;-49
2022/06/09 02:48:22;;;;;;;8.23;1.85;;;17.20;60.80;;;;;;5061708;28;20055;-48
2022/06/09 02:50:52;;;;;;;8.85;2.47;;;17.30;60.80;;;;;;5057493;28;20059;-53
2022/06/09 02:53:22;;;;;;;6.30;1.40;;;17.20;60.60;;;;;;5062447;28;20049;-48
2022/06/09 02:55:49;;;;;;;6.75;1.98;;;17.20;60.60;;;;;;5061700;28;20049;-52
2022/06/09 02:58:17;;;;;;;10.32;2.10;;;17.20;60.50;;;;;;5061621;28;20518;-48
2022/06/09 03:00:45;;;;;;;11.02;2.40;;;17.20;60.50;;;;;;5057086;28;20049;-48
2022/06/09 03:03:15;;;;;;;7.38;1.90;;;17.20;60.50;;;;;;5059319;28;20057;-50
2022/06/09 03:05:43;;;;;;;6.93;2.03;;;17.20;60.50;;;;;;5060241;28;20079;-48
2022/06/09 03:08:11;;;;;;;8.93;2.20;;;17.20;60.70;;;;;;5062268;28;20073;-49
2022/06/09 03:10:39;;;;;;;5.95;1.65;;;17.20;61.70;;;;;;5060187;28;20063;-46
2022/06/09 03:13:07;;;;;;;7.75;1.70;;;17.20;60.90;;;;;;5062241;28;20064;-46
2022/06/09 03:15:35;;;;;;;13.38;2.03;;;17.20;60.80;;;;;;5060151;28;20110;-49
2022/06/09 03:18:03;;;;;;;12.55;1.92;;;17.20;60.80;;;;;;5061122;28;20067;-46
2022/06/09 03:20:33;;;;;;;10.43;1.67;;;17.20;60.90;;;;;;5057169;28;20063;-50
2022/06/09 03:23:01;;;;;;;8.68;2.22;;;17.20;61.00;;;;;;5062431;28;20056;-49
2022/06/09 03:25:29;;;;;;;10.90;2.03;;;17.20;60.80;;;;;;5061394;28;20374;-46
2022/06/09 03:27:57;;;;;;;5.35;1.70;;;17.20;61.00;;;;;;5061144;28;20076;-50
2022/06/09 03:30:24;;;;;;;11.27;1.75;;;17.30;61.00;;;;;;5057440;28;20056;-48
2022/06/09 03:32:52;;;;;;;11.35;1.83;;;17.30;61.00;;;;;;5057992;28;20055;-47
2022/06/09 03:35:19;;;;;;;10.63;2.15;;;17.20;61.00;;;;;;5058945;28;20073;-51
2022/06/09 03:37:47;;;;;;;11.50;2.25;;;17.30;60.90;;;;;;5060132;28;20055;-47
2022/06/09 03:40:17;;;;;;;7.60;1.92;;;17.20;60.80;;;;;;5057012;28;20067;-49
2022/06/09 03:42:46;;;;;;;9.70;2.33;;;17.30;61.10;;;;;;5059389;28;20048;-48
2022/06/09 03:45:14;;;;;;;16.13;3.15;;;17.30;60.90;;;;;;5060246;28;20595;-51
2022/06/09 03:47:41;;;;;;;11.00;1.95;;;17.30;60.90;;;;;;5061713;28;20542;-48
2022/06/09 03:50:16;;;;;;;17.27;2.33;;;17.30;60.90;;;;;;5055488;28;20484;-48
2022/06/09 03:52:43;;;;;;;9.05;2.15;;;17.30;60.90;;;;;;5059708;28;20044;-51
2022/06/09 03:55:11;;;;;;;7.68;2.08;;;17.30;60.80;;;;;;5061031;28;20507;-52
2022/06/09 03:57:38;;;;;;;11.73;2.47;;;17.30;60.90;;;;;;5061549;28;20059;-52
2022/06/09 04:00:10;;;;;;;9.50;1.77;;;17.30;60.90;;;;;;5057315;28;20056;-50
2022/06/09 04:02:37;;;;;;;12.73;2.05;;;17.30;60.80;;;;;;5058959;28;20045;-49
2022/06/09 04:05:05;;;;;;;12.15;2.50;;;17.40;60.90;;;;;;5058147;28;20575;-49
2022/06/09 04:07:33;;;;;;;10.13;2.38;;;17.30;60.90;;;;;;5061183;28;20057;-48
2022/06/09 04:10:00;;;;;;;13.23;2.80;;;17.30;61.10;;;;;;5056932;28;20052;-50
2022/06/09 04:12:28;;;;;;;7.43;1.90;;;17.30;61.20;;;;;;5060683;28;20404;-47
2022/06/09 04:14:55;;;;;;;9.27;2.20;;;17.30;61.40;;;;;;5063404;28;20060;-55
2022/06/09 04:17:24;;;;;;;7.70;1.98;;;17.30;61.50;;;;;;5052780;28;20053;-50
2022/06/09 04:19:52;;;;;;;6.57;2.08;;;17.30;61.70;;;;;;5055336;28;21085;-54
2022/06/09 04:22:20;;;;;;;8.07;2.47;;;17.30;61.80;;;;;;5063562;28;20055;-50
2022/06/09 04:24:47;;;;;;;7.47;2.28;;;17.30;62.00;;;;;;5064463;28;20052;-52
2022/06/09 04:27:14;;;;;;;12.80;2.83;;;17.30;62.00;;;;;;5064158;28;20048;-53
2022/06/09 04:29:42;;;;;;;7.38;1.98;;;17.30;62.10;;;;;;5061427;28;20527;-52
2022/06/09 04:32:10;;;;;;;14.10;2.45;;;17.20;62.10;;;;;;5061011;28;20399;-52
2022/06/09 04:34:39;;;;;;;10.45;2.38;;;17.30;62.30;;;;;;5064796;28;20107;-54
2022/06/09 04:37:06;;;;;;;9.52;2.30;;;17.20;62.50;;;;;;5063272;28;20052;-51
2022/06/09 04:39:34;;;;;;;9.85;1.80;;;17.20;62.50;;;;;;5064782;28;20068;-53
2022/06/09 04:42:02;;;;;;;7.90;2.20;;;17.20;62.60;;;;;;5063706;28;20059;-48
2022/06/09 04:44:29;;;;;;;8.02;1.90;;;17.20;62.70;;;;;;5063950;28;20511;-52
2022/06/09 04:46:57;;;;;;;6.38;1.90;;;17.20;62.90;;;;;;5063650;28;20049;-48
2022/06/09 04:49:24;;;;;;;7.78;2.17;;;17.20;63.00;;;;;;5063447;28;20567;-56
2022/06/09 04:51:53;;;;;;;10.07;2.70;;;17.20;63.20;;;;;;5061932;28;20060;-48
2022/06/09 04:54:20;;;;;;;10.30;2.72;;;17.20;63.30;;;;;;5064901;28;20044;-50
2022/06/09 04:56:48;;;;;;;12.48;3.42;;;17.20;63.40;;;;;;5062782;28;20055;-52
2022/06/09 04:59:15;;;;;;;14.98;3.05;;;17.20;63.50;;;;;;5064982;28;20057;-52
2022/06/09 05:01:45;;;;;;;7.22;2.30;;;17.20;63.60;;;;;;5061540;28;20048;-53
2022/06/09 05:04:13;;;;;;;11.75;2.25;;;17.20;63.60;;;;;;5062274;28;20053;-51
2022/06/09 05:06:40;;;;;;;8.50;2.20;;;17.20;63.70;;;;;;5061147;28;20056;-55
2022/06/09 05:09:09;;;;;;;8.88;2.33;;;17.20;63.80;;;;;;5064797;28;20064;-48
2022/06/09 05:11:36;;;;;;;7.63;1.95;;;17.20;63.80;;;;;;5062202;28;20048;-53
2022/06/09 05:14:04;;;;;;;8.32;3.10;;;17.20;63.80;;;;;;5064582;28;20052;-53
2022/06/09 05:16:31;;;;;;;6.85;2.13;;;17.20;63.80;;;;;;5062481;28;20079;-49
2022/06/09 05:18:59;;;;;;;8.63;2.47;;;17.20;63.80;;;;;;5062429;28;20059;-52
2022/06/09 05:21:26;;;;;;;9.20;2.47;;;17.20;63.80;;;;;;5061493;28;20063;-50
2022/06/09 05:23:54;;;;;;;9.25;2.15;;;17.20;63.90;;;;;;5061930;28;20056;-53
2022/06/09 05:26:22;;;;;;;10.73;2.30;;;17.30;64.00;;;;;;5063752;28;20056;-50
2022/06/09 05:28:50;;;;;;;7.10;2.40;;;17.20;64.10;;;;;;5062301;28;20060;-52
2022/06/09 05:31:17;;;;;;;4.15;1.92;;;17.20;64.20;;;;;;5059743;28;20420;-51
2022/06/09 05:33:45;;;;;;;6.03;2.03;;;17.30;64.30;;;;;;5062770;28;20052;-52
2022/06/09 05:36:12;;;;;;;4.72;1.85;;;17.30;64.20;;;;;;5062691;28;20492;-51
2022/06/09 05:46:58;;;;;;;7.05;2.45;;;17.40;64.30;;;;;;5068976;28;20055;-51
2022/06/09 05:49:25;;;;;;;11.80;2.80;;;17.40;64.20;;;;;;5059798;28;20104;-54
2022/06/09 05:51:53;;;;;;;6.65;2.35;;;17.50;64.20;;;;;;5060243;28;20056;-51
2022/06/09 05:54:21;;;;;;;9.98;2.70;;;17.50;64.10;;;;;;5063339;28;20048;-50
2022/06/09 05:56:50;;;;;;;10.77;3.00;;;17.50;64.10;;;;;;5063139;28;20064;-49
2022/06/09 05:59:18;;;;;;;7.53;2.25;;;17.50;64.10;;;;;;5062719;28;20052;-48
2022/06/09 06:01:46;;;;;;;6.53;2.50;;;17.60;64.20;;;;;;5060754;28;20420;-47
2022/06/09 06:07:35;;;;;;;9.10;2.70;;;17.60;64.50;;;;;;5068205;28;20043;-50
2022/06/09 06:10:03;;;;;;;9.48;3.00;;;17.70;64.30;;;;;;5061935;28;20063;-53
2022/06/09 06:12:33;;;;;;;8.27;2.60;;;17.70;64.30;;;;;;5062604;28;20496;-50
2022/06/09 06:15:00;;;;;;;11.02;2.78;;;17.70;64.50;;;;;;5060513;28;20052;-54
2022/06/09 06:17:28;;;;;;;7.65;2.50;;;17.70;64.40;;;;;;5062843;28;20048;-53
2022/06/09 06:19:56;;;;;;;7.35;2.90;;;17.70;65.00;;;;;;5060054;28;20056;-50
2022/06/09 06:22:23;;;;;;;8.38;2.50;;;17.70;64.20;;;;;;5061851;28;20519;-49
2022/06/09 06:24:51;;;;;;;8.35;2.83;;;17.70;64.30;;;;;;5061859;28;20059;-52
2022/06/09 06:27:18;;;;;;;6.78;2.78;;;17.80;64.30;;;;;;5062556;28;20052;-52
2022/06/09 06:29:47;;;;;;;6.68;2.30;;;17.80;64.20;;;;;;5061792;28;20064;-52
2022/06/09 06:32:14;;;;;;;11.65;3.53;;;17.80;64.10;;;;;;5059163;28;20427;-47
2022/06/09 06:34:42;;;;;;;5.07;2.15;;;17.90;64.20;;;;;;5057484;28;20056;-52
2022/06/09 06:37:09;;;;;;;10.35;2.90;;;17.90;64.00;;;;;;5061204;28;20416;-50
2022/06/09 06:39:37;;;;;;;16.85;3.38;;;17.90;64.10;;;;;;5058517;28;20063;-55
2022/06/09 06:42:05;;;;;;;10.50;2.55;;;17.90;63.80;;;;;;5054591;28;20063;-51
2022/06/09 06:44:32;;;;;;;8.70;2.58;;;17.90;63.70;;;;;;5056838;28;20496;-53
2022/06/09 06:47:01;;;;;;;6.30;2.33;;;17.90;63.80;;;;;;5059398;28;20056;-53
2022/06/09 06:49:28;;;;;;;7.28;2.65;;;17.90;63.60;;;;;;5060387;28;20052;-51
2022/06/09 06:51:56;;;;;;;8.88;2.47;;;17.90;63.50;;;;;;5059317;28;20407;-51
2022/06/09 06:54:24;;;;;;;7.63;2.90;;;17.90;63.40;;;;;;5062405;28;20057;-52
2022/06/09 06:56:52;;;;;;;8.82;2.88;;;17.90;63.40;;;;;;5057539;28;20648;-51
2022/06/09 06:59:20;;;;;;;7.88;2.13;;;17.90;63.40;;;;;;5061965;28;20060;-48
2022/06/09 07:01:48;;;;;;;5.75;2.53;;;17.90;63.40;;;;;;5060224;28;20071;-51
2022/06/09 07:04:17;;;;;;;14.10;3.45;;;17.90;63.40;;;;;;5061304;28;20048;-50
2022/06/09 07:06:45;;;;;;;7.38;3.10;;;17.90;63.30;;;;;;5060657;28;20075;-51
2022/06/09 07:09:14;;;;;;;9.02;2.42;;;17.90;63.40;;;;;;5061550;28;20052;-50
2022/06/09 07:11:43;;;;;;;10.35;3.78;;;17.90;63.50;;;;;;5059057;28;20064;-50
2022/06/09 07:14:11;;;;;;;7.20;2.47;;;17.90;63.60;;;;;;5060719;28;20052;-49
2022/06/09 07:16:39;;;;;;;7.75;2.83;;;17.90;63.60;;;;;;5060012;28;20087;-51
2022/06/09 07:19:08;;;;;;;8.68;3.03;;;17.90;63.70;;;;;;5061175;28;20045;-49
2022/06/09 07:21:37;;;;;;;8.48;2.95;;;18.00;64.00;;;;;;5055823;28;20492;-52
2022/06/09 07:24:06;;;;;;;12.93;3.65;;;18.00;63.80;;;;;;5060624;28;20416;-50
2022/06/09 07:26:34;;;;;;;9.88;3.25;;;18.00;63.70;;;;;;5061069;28;20063;-48
2022/06/09 07:29:02;;;;;;;6.15;2.95;;;18.00;63.70;;;;;;5059945;28;20060;-47
2022/06/09 07:31:29;;;;;;;11.10;3.10;;;18.00;63.80;;;;;;5058724;28;20060;-50
2022/06/09 07:33:57;;;;;;;16.02;3.90;;;18.00;63.90;;;;;;5061055;28;20053;-48
2022/06/09 07:36:26;;;;;;;12.82;3.40;;;18.00;64.10;;;;;;5058059;28;20052;-48
2022/06/09 07:38:55;;;;;;;9.77;4.32;;;18.00;64.40;;;;;;5061430;28;20048;-49
2022/06/09 07:41:23;;;;;;;13.88;3.97;;;18.00;64.50;;;;;;5059992;28;20447;-46
2022/06/09 07:43:51;;;;;;;10.88;3.78;;;18.10;64.60;;;;;;5059860;28;20052;-48
2022/06/09 07:46:20;;;;;;;11.93;3.33;;;18.10;64.90;;;;;;5058608;28;20048;-46
2022/06/09 07:48:48;;;;;;;12.60;4.10;;;18.20;65.10;;;;;;5061454;28;20059;-48
2022/06/09 07:51:15;;;;;;;12.23;4.20;;;18.20;65.00;;;;;;5057805;28;20053;-50
2022/06/09 07:53:43;;;;;;;11.43;3.88;;;18.20;64.90;;;;;;5059860;28;20048;-46
2022/06/09 07:56:12;;;;;;;14.57;4.55;;;18.30;64.70;;;;;;5060734;28;20546;-52
2022/06/09 07:58:39;;;;;;;16.70;4.25;;;18.30;64.40;;;;;;5059471;28;20059;-53
2022/06/09 08:01:07;;;;;;;10.63;4.25;;;18.40;64.50;;;;;;5057275;28;20056;-51
2022/06/09 08:03:35;;;;;;;9.93;4.68;;;18.40;64.50;;;;;;5060694;28;20076;-45
2022/06/09 08:06:02;;;;;;;13.68;4.20;;;18.40;64.40;;;;;;5057378;28;20504;-48
2022/06/09 08:08:29;;;;;;;12.27;4.18;;;18.50;64.60;;;;;;5059479;28;20040;-45
2022/06/09 08:10:57;;;;;;;10.25;4.28;;;18.50;64.70;;;;;;5056999;28;20055;-50
2022/06/09 08:13:26;;;;;;;11.38;4.00;;;18.50;65.10;;;;;;5056352;28;20068;-47
2022/06/09 08:15:54;;;;;;;12.68;4.95;;;18.50;65.10;;;;;;5055284;28;20053;-45
2022/06/09 08:18:21;;;;;;;16.00;5.32;;;18.60;65.40;;;;;;5041042;28;20052;-49
2022/06/09 08:20:49;;;;;;;13.82;4.72;;;18.70;65.40;;;;;;5050633;28;20369;-48
2022/06/09 08:23:18;;;;;;;11.82;4.97;;;18.80;65.40;;;;;;5060176;28;20068;-47
2022/06/09 08:25:47;;;;;;;12.63;5.78;;;18.80;65.30;;;;;;5059122;28;20056;-50
2022/06/09 08:28:17;;;;;;;13.55;5.18;;;18.90;64.90;;;;;;5048936;28;20052;-46
2022/06/09 08:30:46;;;;;;;13.27;4.82;;;19.00;65.10;;;;;;5047501;28;20056;-47
2022/06/09 08:33:14;;;;;;;22.50;6.07;;;19.10;65.00;;;;;;5057541;28;20063;-60
2022/06/09 08:35:41;;;;;;;19.63;5.78;;;19.20;64.70;;;;;;5058160;28;20048;-50
2022/06/09 08:38:09;;;;;;;19.30;5.45;;;19.20;62.70;;;;;;5060751;28;20076;-50
2022/06/09 08:40:49;;;;;;;20.98;6.60;;;19.20;62.60;;;;;;5059497;28;20049;-52
2022/06/09 08:43:29;;;;;;;19.15;5.88;;;19.30;61.10;;;;;;5059127;28;20068;-53
2022/06/09 08:46:05;;;;;;;15.82;5.38;;;19.20;60.20;;;;;;5060291;28;20049;-48
2022/06/09 08:48:40;;;;;;;16.50;5.80;;;19.20;60.00;;;;;;5061175;28;20063;-46
2022/06/09 08:51:12;;;;;;;17.48;5.47;;;19.20;61.00;;;;;;5057676;28;20048;-52
2022/06/09 08:53:45;;;;;;;16.92;5.15;;;19.20;60.60;;;;;;5057832;28;20056;-54
2022/06/09 08:56:21;;;;;;;14.07;5.27;;;19.20;60.70;;;;;;5060373;28;20059;-53
2022/06/09 08:58:52;;;;;;;14.35;5.20;;;19.20;60.50;;;;;;5064395;28;20501;-49
2022/06/09 09:01:28;;;;;;;22.80;5.35;;;19.30;60.80;;;;;;5061614;28;20419;-52
2022/06/09 09:04:00;;;;;;;12.15;5.22;;;19.30;60.80;;;;;;5056024;28;20270;-56
2022/06/09 09:06:30;;;;;;;17.13;5.25;;;19.40;60.30;;;;;;5049751;28;20451;-49
2022/06/09 09:09:06;;;;;;;16.05;5.20;;;19.40;60.10;;;;;;5054168;28;20060;-49
2022/06/09 09:11:47;;;;;;;16.38;4.55;;;19.50;60.70;;;;;;5059203;28;20055;-55
2022/06/09 09:14:18;;;;;;;14.35;5.03;;;19.50;61.00;;;;;;5061174;28;20514;-52
2022/06/09 09:16:55;;;;;;;17.88;4.32;;;19.60;59.30;;;;;;5055804;28;20416;-57
2022/06/09 09:19:35;;;;;;;14.95;4.60;;;19.60;58.70;;;;;;5059420;28;20415;-52
2022/06/09 09:22:09;;;;;;;13.82;4.85;;;19.60;58.00;;;;;;5058382;28;20057;-51
2022/06/09 09:24:43;;;;;;;17.40;5.55;;;19.60;58.60;;;;;;5064024;28;20058;-49
2022/06/09 09:27:23;;;;;;;16.52;5.50;;;19.60;58.20;;;;;;5060979;28;20052;-49
2022/06/09 09:29:58;;;;;;;17.30;4.80;;;19.60;58.60;;;;;;5061841;28;20060;-49
2022/06/09 09:32:30;;;;;;;13.30;4.68;;;19.70;58.80;;;;;;5056547;28;20059;-48
2022/06/09 09:34:59;;;;;;;17.90;4.88;;;19.70;58.50;;;;;;5060720;28;20520;-52
2022/06/09 09:37:30;;;;;;;21.10;5.15;;;19.70;58.10;;;;;;5061881;28;20079;-52
2022/06/09 09:40:00;;;;;;;16.33;5.15;;;19.60;58.10;;;;;;5061525;28;20064;-53
2022/06/09 09:42:30;;;;;;;15.73;5.13;;;19.60;58.40;;;;;;5060964;28;20052;-53
2022/06/09 09:45:05;;;;;;;18.30;5.40;;;19.60;59.30;;;;;;5062360;28;20053;-58
2022/06/09 09:47:44;;;;;;;15.20;5.28;;;19.70;58.90;;;;;;5063512;28;20056;-47
2022/06/09 09:50:23;;;;;;;17.23;5.20;;;19.70;57.70;;;;;;5059211;28;20056;-47
2022/06/09 09:53:00;;;;;;;16.38;5.38;;;19.70;58.50;;;;;;5063249;28;20063;-47
2022/06/09 09:55:34;;;;;;;13.82;4.75;;;19.60;57.90;;;;;;5060946;28;20048;-51
2022/06/09 09:58:25;;;;;;;;;;;19.70;57.80;;;;;;5063100;28;20388;-49
2022/06/09 10:00:56;;;;;;;22.08;5.05;;;19.80;58.50;;;;;;5054443;28;19932;-49
2022/06/09 10:09:14;;;;;;;17.45;5.32;;;19.90;58.20;;;;;;5066829;28;20134;-51
2022/06/09 10:11:55;;;;;;;18.33;5.75;;;19.90;57.90;;;;;;5056639;28;20090;-52
2022/06/09 10:14:51;;;;;;;12.57;4.43;;;20.00;57.90;;;;;;5061059;28;20638;-51
2022/06/09 10:17:29;;;;;;;21.52;6.07;;;20.00;57.40;;;;;;5043580;28;20380;-49
2022/06/09 10:20:06;;;;;;;18.17;7.00;;;20.00;56.40;;;;;;5056766;28;20061;-51
2022/06/09 10:22:35;;;;;;;15.32;6.75;;;20.00;55.90;;;;;;5055641;28;20772;-49
2022/06/09 10:25:17;;;;;;;15.45;5.93;;;20.00;55.20;;;;;;5060306;28;20053;-49
2022/06/09 10:27:48;;;;;;;12.40;5.50;;;20.00;55.80;;;;;;5059670;28;20064;-51
2022/06/09 10:30:21;;;;;;;17.15;5.47;;;20.00;56.40;;;;;;5055054;28;20166;-57
2022/06/09 10:32:54;;;;;;;12.00;4.70;;;19.90;54.50;;;;;;5054088;28;20056;-50
2022/06/09 10:35:32;;;;;;;13.48;5.00;;;19.90;55.80;;;;;;5057258;28;20059;-50
2022/06/09 10:38:06;;;;;;;14.10;4.82;;;19.90;55.80;;;;;;5061755;28;20110;-52
2022/06/09 10:40:41;;;;;;;12.35;4.55;;;20.00;55.50;;;;;;5059138;28;20515;-49
2022/06/09 10:43:21;;;;;;;12.18;4.55;;;20.00;55.40;;;;;;5063147;28;20059;-58
2022/06/09 10:45:56;;;;;;;11.02;4.40;;;20.00;55.40;;;;;;5061819;28;20063;-45
2022/06/09 10:57:04;;;;;;;18.67;5.00;;;20.40;56.20;;;;;;5059127;28;19928;-56
2022/06/09 10:59:35;;;;;;;13.18;4.32;;;20.40;54.60;;;;;;5059871;28;20068;-59
2022/06/09 11:02:10;;;;;;;11.88;4.45;;;20.40;54.30;;;;;;5058933;28;20503;-57
2022/06/09 11:04:38;;;;;;;10.77;3.97;;;20.40;54.40;;;;;;5057216;28;20067;-58
2022/06/09 11:07:29;;;;;;;8.48;3.63;;;20.40;53.90;;;;;;5060788;28;20048;-53
2022/06/09 11:10:06;;;;;;;11.73;3.42;;;20.40;54.00;;;;;;5061095;28;20052;-49
2022/06/09 11:12:45;;;;;;;9.35;3.30;;;20.40;54.30;;;;;;5059803;28;20496;-50
2022/06/09 11:15:25;;;;;;;11.63;3.78;;;20.40;54.50;;;;;;5061495;28;20055;-49
2022/06/09 11:18:16;;;;;;;16.30;3.50;;;20.40;53.70;;;;;;5059285;28;20875;-46
2022/06/09 11:21:03;;;;;;;9.93;3.05;;;20.50;53.80;;;;;;5058999;28;20053;-47
2022/06/09 11:23:44;;;;;;;12.73;3.30;;;20.60;54.30;;;;;;5061764;28;20059;-58
2022/06/09 11:26:22;;;;;;;12.32;3.15;;;20.60;52.00;;;;;;5060960;28;20381;-56
2022/06/09 11:29:00;;;;;;;16.77;4.05;;;20.70;52.20;;;;;;5060087;28;20059;-52
2022/06/09 11:31:46;;;;;;;11.90;3.70;;;20.70;53.80;;;;;;5058258;28;20063;-52
2022/06/09 11:34:41;;;;;;;15.95;3.63;;;20.70;51.60;;;;;;5059542;28;20060;-59
2022/06/09 11:37:18;;;;;;;15.27;3.80;;;20.70;52.20;;;;;;5060836;28;20603;-54
2022/06/09 11:40:02;;;;;;;29.90;4.10;;;20.70;51.90;;;;;;5061497;28;20063;-51
2022/06/09 11:42:41;;;;;;;12.68;3.90;;;20.80;53.20;;;;;;5061598;28;20072;-52
2022/06/09 11:45:24;;;;;;;13.82;2.95;;;20.80;52.90;;;;;;5061844;28;20056;-58
2022/06/09 11:47:53;;;;;;;14.13;3.83;;;20.80;52.50;;;;;;5060161;28;20147;-57
2022/06/09 11:50:25;;;;;;;15.48;3.63;;;20.90;53.00;;;;;;5058907;28;20052;-53
2022/06/09 11:52:53;;;;;;;15.30;3.95;;;21.00;52.20;;;;;;5060588;28;20059;-57
2022/06/09 11:58:49;;;;;;;9.93;2.90;;;21.10;52.50;;;;;;5067966;28;20059;-54
2022/06/09 12:01:56;;;;;;;13.02;3.33;;;21.10;51.40;;;;;;5057588;28;20052;-49
2022/06/09 12:04:52;;;;;;;11.27;2.78;;;21.20;51.00;;;;;;5016828;28;20053;-49
2022/06/09 12:07:38;;;;;;;8.70;2.70;;;21.20;49.80;;;;;;5019573;28;20053;-53
2022/06/09 12:10:33;;;;;;;11.77;3.10;;;21.30;50.80;;;;;;5051878;28;20053;-50
2022/06/09 12:13:17;;;;;;;9.45;2.80;;;21.30;50.80;;;;;;5060889;28;20064;-51
2022/06/09 12:15:54;;;;;;;11.32;2.80;;;21.30;50.10;;;;;;5060386;28;20056;-55
2022/06/09 12:18:38;;;;;;;8.88;3.00;;;21.20;50.20;;;;;;5060173;28;20059;-58
2022/06/09 12:21:27;;;;;;;12.25;3.22;;;21.10;50.60;;;;;;5056860;28;20053;-55
2022/06/09 12:24:25;;;;;;;8.82;2.78;;;21.10;51.40;;;;;;5061136;28;20049;-57
2022/06/09 12:26:56;;;;;;;10.90;2.88;;;21.00;52.10;;;;;;5061224;28;20052;-57
2022/06/09 12:29:45;;;;;;;18.23;3.75;;;20.90;52.60;;;;;;5061375;28;20048;-56
2022/06/09 12:32:42;;;;;;;13.45;3.90;;;20.80;53.10;;;;;;5061377;28;20059;-55
2022/06/09 12:35:29;;;;;;;18.75;3.33;;;20.70;53.70;;;;;;5061182;28;20091;-57
2022/06/09 12:38:01;;;;;;;13.70;3.47;;;20.70;54.00;;;;;;5065418;28;20049;-53
2022/06/09 12:40:36;;;;;;;13.20;3.42;;;20.60;54.10;;;;;;5061072;28;20500;-54
2022/06/09 12:43:08;;;;;;;14.25;3.15;;;20.60;54.40;;;;;;5065176;28;20056;-53
2022/06/09 12:45:39;;;;;;;11.98;3.60;;;20.70;54.50;;;;;;5064718;28;20057;-53
2022/06/09 12:48:12;;;;;;;10.07;3.30;;;20.70;54.70;;;;;;5060886;28;20500;-53
2022/06/09 12:50:45;;;;;;;7.10;2.70;;;20.80;55.40;;;;;;5062271;28;20428;-52
2022/06/09 12:53:19;;;;;;;11.55;3.13;;;20.90;55.80;;;;;;5064067;28;20064;-47
2022/06/09 12:55:51;;;;;;;;;;;21.10;54.80;;;;;;5065410;28;20049;-49
2022/06/09 12:58:22;;;;;;;11.73;2.78;;;21.20;55.00;;;;;;5064610;28;19953;-58
2022/06/09 13:00:55;;;;;;;11.50;2.85;;;21.30;53.60;;;;;;5060034;28;20067;-53
2022/06/09 13:03:29;;;;;;;10.17;3.30;;;21.30;52.40;;;;;;5062950;28;20060;-57
2022/06/09 13:05:58;;;;;;;6.60;2.60;;;21.30;52.70;;;;;;5052186;28;20479;-54
2022/06/09 13:08:27;;;;;;;12.35;2.60;;;21.30;52.60;;;;;;5053922;28;20048;-56
2022/06/09 13:10:59;;;;;;;17.80;3.10;;;21.20;52.60;;;;;;5052113;28;20040;-57
2022/06/09 13:13:30;;;;;;;10.15;2.67;;;21.10;52.60;;;;;;5052893;28;20048;-57
2022/06/09 13:16:02;;;;;;;9.60;2.28;;;21.10;52.60;;;;;;5051094;28;20063;-52
2022/06/09 13:18:35;;;;;;;9.00;2.72;;;21.00;53.00;;;;;;5052480;28;20053;-53
2022/06/09 13:21:08;;;;;;;6.47;2.33;;;20.90;53.50;;;;;;5053495;28;20048;-59
2022/06/09 13:23:37;;;;;;;9.32;2.65;;;20.90;54.20;;;;;;5054554;28;20072;-58
2022/06/09 13:26:06;;;;;;;6.90;2.17;;;20.90;54.40;;;;;;5060768;28;20055;-56
2022/06/09 13:28:37;;;;;;;7.95;2.70;;;21.00;54.80;;;;;;5061126;28;20484;-52
2022/06/09 13:31:25;;;;;;;7.30;2.80;;;21.10;54.50;;;;;;5061282;28;20079;-55
2022/06/09 13:33:58;;;;;;;4.18;1.83;;;21.20;53.80;;;;;;5063501;28;20063;-52
2022/06/09 13:36:34;;;;;;;10.13;2.53;;;21.30;53.80;;;;;;5062383;28;20048;-55